sensor_id;sensor_type;location;lat;lon;timestamp;temperature;humidity
26595;DHT22;14238;49.496;8.154;2023-10-08T00:02:16;17.90;99.90
26595;DHT22;14238;49.496;8.154;2023-10-08T00:04:48;17.80;99.90
26595;DHT22;14238;49.496;8.154;2023-10-08T00:07:16;17.70;99.90
26595;DHT22;14238;49.496;8.154;2023-10-08T00:09:49;17.70;99.90
26595;DHT22;14238;49.496;8.154;2023-10-08T00:12:17;17.70;99.90
26595;DHT22;14238;49.496;8.154;2023-10-08T00:14:43;17.70;99.90
26595;DHT22;14238;49.496;8.154;2023-10-08T00:17:15;17.70;99.90
26595;DHT22;14238;49.496;8.154;2023-10-08T00:19:41;17.60;99.90
26595;DHT22;14238;49.496;8.154;2023-10-08T00:22:09;17.60;99.90
26595;DHT22;14238;49.496;8.154;2023-10-08T00:24:36;17.60;99.90
26595;DHT22;14238;49.496;8.154;2023-10-08T00:27:03;17.60;99.90
26595;DHT22;14238;49.496;8.154;2023-10-08T00:29:32;17.60;99.90
26595;DHT22;14238;49.496;8.154;2023-10-08T00:31:58;17.60;99.90
26595;DHT22;14238;49.496;8.154;2023-10-08T00:34:23;17.70;99.90
26595;DHT22;14238;49.496;8.154;2023-10-08T00:36:50;17.70;99.90
26595;DHT22;14238;49.496;8.154;2023-10-08T00:39:17;17.70;99.90
26595;DHT22;14238;49.496;8.154;2023-10-08T00:41:50;17.60;99.90
26595;DHT22;14238;49.496;8.154;2023-10-08T00:44:16;17.60;99.90
26595;DHT22;14238;49.496;8.154;2023-10-08T00:46:50;17.70;99.90
26595;DHT22;14238;49.496;8.154;2023-10-08T00:49:20;17.60;99.90
26595;DHT22;14238;49.496;8.154;2023-10-08T00:51:57;17.50;99.90
26595;DHT22;14238;49.496;8.154;2023-10-08T00:54:29;17.50;99.90
26595;DHT22;14238;49.496;8.154;2023-10-08T00:56:59;17.30;99.90
26595;DHT22;14238;49.496;8.154;2023-10-08T00:59:29;17.30;99.90
26595;DHT22;14238;49.496;8.154;2023-10-08T01:01:59;17.30;99.90
26595;DHT22;14238;49.496;8.154;2023-10-08T01:04:31;17.30;99.90
26595;DHT22;14238;49.496;8.154;2023-10-08T01:07:01;17.20;99.90
26595;DHT22;14238;49.496;8.154;2023-10-08T01:09:28;17.10;99.90
26595;DHT22;14238;49.496;8.154;2023-10-08T01:12:13;17.10;99.90
26595;DHT22;14238;49.496;8.154;2023-10-08T01:15:00;17.00;99.90
26595;DHT22;14238;49.496;8.154;2023-10-08T01:17:39;17.00;99.90
26595;DHT22;14238;49.496;8.154;2023-10-08T01:20:18;16.90;99.90
26595;DHT22;14238;49.496;8.154;2023-10-08T01:23:14;16.80;99.90
26595;DHT22;14238;49.496;8.154;2023-10-08T01:25:45;16.90;99.90
26595;DHT22;14238;49.496;8.154;2023-10-08T01:28:16;16.90;99.90
26595;DHT22;14238;49.496;8.154;2023-10-08T01:30:53;16.90;99.90
26595;DHT22;14238;49.496;8.154;2023-10-08T01:33:23;16.80;99.90
26595;DHT22;14238;49.496;8.154;2023-10-08T01:35:53;16.90;99.90
26595;DHT22;14238;49.496;8.154;2023-10-08T01:38:19;16.70;99.90
26595;DHT22;14238;49.496;8.154;2023-10-08T01:40:52;16.60;99.90
26595;DHT22;14238;49.496;8.154;2023-10-08T01:43:18;16.50;99.90
26595;DHT22;14238;49.496;8.154;2023-10-08T01:45:44;16.60;99.90
26595;DHT22;14238;49.496;8.154;2023-10-08T01:48:14;16.50;99.90
26595;DHT22;14238;49.496;8.154;2023-10-08T01:50:45;16.40;99.90
26595;DHT22;14238;49.496;8.154;2023-10-08T01:53:12;16.40;99.90
26595;DHT22;14238;49.496;8.154;2023-10-08T01:55:40;16.30;99.90
26595;DHT22;14238;49.496;8.154;2023-10-08T01:58:16;16.20;99.90
26595;DHT22;14238;49.496;8.154;2023-10-08T02:00:46;16.20;99.90
26595;DHT22;14238;49.496;8.154;2023-10-08T02:03:13;16.20;99.90
26595;DHT22;14238;49.496;8.154;2023-10-08T02:05:43;16.20;99.90
26595;DHT22;14238;49.496;8.154;2023-10-08T02:08:10;16.10;99.90
26595;DHT22;14238;49.496;8.154;2023-10-08T02:10:37;16.20;99.90
26595;DHT22;14238;49.496;8.154;2023-10-08T02:13:03;16.20;99.90
26595;DHT22;14238;49.496;8.154;2023-10-08T02:15:30;16.20;99.90
26595;DHT22;14238;49.496;8.154;2023-10-08T02:17:55;16.20;99.90
26595;DHT22;14238;49.496;8.154;2023-10-08T02:20:22;16.30;99.90
26595;DHT22;14238;49.496;8.154;2023-10-08T02:22:48;16.30;99.90
26595;DHT22;14238;49.496;8.154;2023-10-08T02:25:17;16.40;99.90
26595;DHT22;14238;49.496;8.154;2023-10-08T02:27:43;16.20;99.90
26595;DHT22;14238;49.496;8.154;2023-10-08T02:30:09;16.10;99.90
26595;DHT22;14238;49.496;8.154;2023-10-08T02:32:38;16.20;99.90
26595;DHT22;14238;49.496;8.154;2023-10-08T02:35:04;16.10;99.90
26595;DHT22;14238;49.496;8.154;2023-10-08T02:37:29;16.10;99.90
26595;DHT22;14238;49.496;8.154;2023-10-08T02:39:55;16.00;99.90
26595;DHT22;14238;49.496;8.154;2023-10-08T02:42:21;15.90;99.90
26595;DHT22;14238;49.496;8.154;2023-10-08T02:44:47;15.80;99.90
26595;DHT22;14238;49.496;8.154;2023-10-08T02:47:13;15.80;99.90
26595;DHT22;14238;49.496;8.154;2023-10-08T02:49:47;15.80;99.90
26595;DHT22;14238;49.496;8.154;2023-10-08T02:52:17;15.80;99.90
26595;DHT22;14238;49.496;8.154;2023-10-08T02:54:43;15.80;99.90
26595;DHT22;14238;49.496;8.154;2023-10-08T02:57:08;15.80;99.90
26595;DHT22;14238;49.496;8.154;2023-10-08T02:59:40;15.70;99.90
26595;DHT22;14238;49.496;8.154;2023-10-08T03:02:13;15.70;99.90
26595;DHT22;14238;49.496;8.154;2023-10-08T03:04:44;15.60;99.90
26595;DHT22;14238;49.496;8.154;2023-10-08T03:07:12;15.50;99.90
26595;DHT22;14238;49.496;8.154;2023-10-08T03:09:47;15.40;99.90
26595;DHT22;14238;49.496;8.154;2023-10-08T03:12:15;15.40;99.90
26595;DHT22;14238;49.496;8.154;2023-10-08T03:14:42;15.30;99.90
26595;DHT22;14238;49.496;8.154;2023-10-08T03:17:15;15.30;99.90
26595;DHT22;14238;49.496;8.154;2023-10-08T03:19:46;15.30;99.90
26595;DHT22;14238;49.496;8.154;2023-10-08T03:22:11;15.20;99.90
26595;DHT22;14238;49.496;8.154;2023-10-08T03:24:37;15.20;99.90
26595;DHT22;14238;49.496;8.154;2023-10-08T03:27:05;15.00;99.90
26595;DHT22;14238;49.496;8.154;2023-10-08T03:29:51;14.90;99.90
26595;DHT22;14238;49.496;8.154;2023-10-08T03:32:19;14.90;99.90
26595;DHT22;14238;49.496;8.154;2023-10-08T03:34:52;14.90;99.90
26595;DHT22;14238;49.496;8.154;2023-10-08T03:37:22;14.70;99.90
26595;DHT22;14238;49.496;8.154;2023-10-08T03:39:55;14.70;99.90
26595;DHT22;14238;49.496;8.154;2023-10-08T03:42:32;14.60;99.90
26595;DHT22;14238;49.496;8.154;2023-10-08T03:45:06;14.50;99.90
26595;DHT22;14238;49.496;8.154;2023-10-08T03:47:41;14.40;99.90
26595;DHT22;14238;49.496;8.154;2023-10-08T03:50:12;14.30;99.90
26595;DHT22;14238;49.496;8.154;2023-10-08T03:52:42;14.20;99.90
26595;DHT22;14238;49.496;8.154;2023-10-08T03:55:09;14.20;99.90
26595;DHT22;14238;49.496;8.154;2023-10-08T03:57:43;14.10;99.90
26595;DHT22;14238;49.496;8.154;2023-10-08T04:00:11;14.30;99.90
26595;DHT22;14238;49.496;8.154;2023-10-08T04:02:47;14.30;99.90
26595;DHT22;14238;49.496;8.154;2023-10-08T04:05:23;14.20;99.90
26595;DHT22;14238;49.496;8.154;2023-10-08T04:07:53;14.30;99.90
26595;DHT22;14238;49.496;8.154;2023-10-08T04:10:26;14.20;99.90
26595;DHT22;14238;49.496;8.154;2023-10-08T04:13:07;14.10;99.90
26595;DHT22;14238;49.496;8.154;2023-10-08T04:15:35;13.90;99.90
26595;DHT22;14238;49.496;8.154;2023-10-08T04:18:09;13.90;99.90
26595;DHT22;14238;49.496;8.154;2023-10-08T04:20:35;13.80;99.90
26595;DHT22;14238;49.496;8.154;2023-10-08T04:23:01;13.90;99.90
26595;DHT22;14238;49.496;8.154;2023-10-08T04:25:28;13.90;99.90
26595;DHT22;14238;49.496;8.154;2023-10-08T04:27:58;14.00;99.90
26595;DHT22;14238;49.496;8.154;2023-10-08T04:30:34;14.00;99.90
26595;DHT22;14238;49.496;8.154;2023-10-08T04:33:01;13.90;99.90
26595;DHT22;14238;49.496;8.154;2023-10-08T04:35:37;13.70;99.90
26595;DHT22;14238;49.496;8.154;2023-10-08T04:38:16;13.80;99.90
26595;DHT22;14238;49.496;8.154;2023-10-08T04:40:45;13.80;99.90
26595;DHT22;14238;49.496;8.154;2023-10-08T04:43:24;13.70;99.90
26595;DHT22;14238;49.496;8.154;2023-10-08T04:45:57;13.60;99.90
26595;DHT22;14238;49.496;8.154;2023-10-08T04:48:26;13.50;99.90
26595;DHT22;14238;49.496;8.154;2023-10-08T04:50:57;13.50;99.90
26595;DHT22;14238;49.496;8.154;2023-10-08T04:53:29;13.30;99.90
26595;DHT22;14238;49.496;8.154;2023-10-08T04:56:03;13.40;99.90
26595;DHT22;14238;49.496;8.154;2023-10-08T04:58:38;13.60;99.90
26595;DHT22;14238;49.496;8.154;2023-10-08T05:01:06;13.50;99.90
26595;DHT22;14238;49.496;8.154;2023-10-08T05:03:52;13.30;99.90
26595;DHT22;14238;49.496;8.154;2023-10-08T05:06:32;13.10;99.90
26595;DHT22;14238;49.496;8.154;2023-10-08T05:09:03;13.20;99.90
26595;DHT22;14238;49.496;8.154;2023-10-08T05:11:58;13.00;99.90
26595;DHT22;14238;49.496;8.154;2023-10-08T05:14:36;13.00;99.90
26595;DHT22;14238;49.496;8.154;2023-10-08T05:17:10;13.00;99.90
26595;DHT22;14238;49.496;8.154;2023-10-08T05:19:38;13.20;99.90
26595;DHT22;14238;49.496;8.154;2023-10-08T05:22:08;13.10;99.90
26595;DHT22;14238;49.496;8.154;2023-10-08T05:24:49;13.20;99.90
26595;DHT22;14238;49.496;8.154;2023-10-08T05:27:52;13.10;99.90
26595;DHT22;14238;49.496;8.154;2023-10-08T05:30:20;13.20;99.90
26595;DHT22;14238;49.496;8.154;2023-10-08T05:35:49;13.60;99.90
26595;DHT22;14238;49.496;8.154;2023-10-08T05:38:17;14.30;99.90
26595;DHT22;14238;49.496;8.154;2023-10-08T05:43:28;15.00;99.90
26595;DHT22;14238;49.496;8.154;2023-10-08T05:46:06;15.10;99.90
26595;DHT22;14238;49.496;8.154;2023-10-08T05:48:54;15.20;99.90
26595;DHT22;14238;49.496;8.154;2023-10-08T05:51:42;15.30;99.90
26595;DHT22;14238;49.496;8.154;2023-10-08T05:54:14;15.40;99.90
26595;DHT22;14238;49.496;8.154;2023-10-08T05:56:59;15.40;99.90
26595;DHT22;14238;49.496;8.154;2023-10-08T05:59:47;15.30;99.90
26595;DHT22;14238;49.496;8.154;2023-10-08T06:02:29;15.30;99.90
26595;DHT22;14238;49.496;8.154;2023-10-08T06:05:00;15.30;99.90
26595;DHT22;14238;49.496;8.154;2023-10-08T06:07:39;15.30;99.90
26595;DHT22;14238;49.496;8.154;2023-10-08T06:10:23;15.30;99.90
26595;DHT22;14238;49.496;8.154;2023-10-08T06:13:16;15.30;99.90
26595;DHT22;14238;49.496;8.154;2023-10-08T06:16:10;15.50;99.90
26595;DHT22;14238;49.496;8.154;2023-10-08T06:18:38;15.60;99.90
26595;DHT22;14238;49.496;8.154;2023-10-08T06:21:06;15.60;99.90
26595;DHT22;14238;49.496;8.154;2023-10-08T06:23:39;15.60;99.90
26595;DHT22;14238;49.496;8.154;2023-10-08T06:26:07;15.60;99.90
26595;DHT22;14238;49.496;8.154;2023-10-08T06:28:37;15.70;99.90
26595;DHT22;14238;49.496;8.154;2023-10-08T06:31:04;15.80;99.90
26595;DHT22;14238;49.496;8.154;2023-10-08T06:33:37;15.90;99.90
26595;DHT22;14238;49.496;8.154;2023-10-08T06:36:04;15.90;99.90
26595;DHT22;14238;49.496;8.154;2023-10-08T06:38:40;15.90;99.90
26595;DHT22;14238;49.496;8.154;2023-10-08T06:41:10;15.90;99.90
26595;DHT22;14238;49.496;8.154;2023-10-08T06:43:48;15.90;99.90
26595;DHT22;14238;49.496;8.154;2023-10-08T06:46:15;15.90;99.90
26595;DHT22;14238;49.496;8.154;2023-10-08T06:48:45;16.10;99.90
26595;DHT22;14238;49.496;8.154;2023-10-08T06:51:12;16.20;99.90
26595;DHT22;14238;49.496;8.154;2023-10-08T06:53:45;16.20;99.90
26595;DHT22;14238;49.496;8.154;2023-10-08T06:56:11;16.20;99.90
26595;DHT22;14238;49.496;8.154;2023-10-08T06:58:41;16.30;99.90
26595;DHT22;14238;49.496;8.154;2023-10-08T07:01:15;16.30;99.90
26595;DHT22;14238;49.496;8.154;2023-10-08T07:03:49;16.20;99.90
26595;DHT22;14238;49.496;8.154;2023-10-08T07:06:16;16.20;99.90
26595;DHT22;14238;49.496;8.154;2023-10-08T07:08:43;16.20;99.90
26595;DHT22;14238;49.496;8.154;2023-10-08T07:11:12;16.30;99.90
26595;DHT22;14238;49.496;8.154;2023-10-08T07:13:39;16.30;99.90
26595;DHT22;14238;49.496;8.154;2023-10-08T07:16:07;16.30;99.90
26595;DHT22;14238;49.496;8.154;2023-10-08T07:18:37;16.30;99.90
26595;DHT22;14238;49.496;8.154;2023-10-08T07:21:03;16.40;99.90
26595;DHT22;14238;49.496;8.154;2023-10-08T07:23:30;16.40;99.90
26595;DHT22;14238;49.496;8.154;2023-10-08T07:26:01;16.40;99.90
26595;DHT22;14238;49.496;8.154;2023-10-08T07:28:41;16.60;99.90
26595;DHT22;14238;49.496;8.154;2023-10-08T07:31:17;16.60;99.90
26595;DHT22;14238;49.496;8.154;2023-10-08T07:33:43;16.80;99.90
26595;DHT22;14238;49.496;8.154;2023-10-08T07:36:10;16.90;99.90
26595;DHT22;14238;49.496;8.154;2023-10-08T07:38:44;17.00;99.90
26595;DHT22;14238;49.496;8.154;2023-10-08T07:41:10;17.00;99.90
26595;DHT22;14238;49.496;8.154;2023-10-08T07:43:43;17.20;99.90
26595;DHT22;14238;49.496;8.154;2023-10-08T07:46:10;17.20;99.90
26595;DHT22;14238;49.496;8.154;2023-10-08T07:48:36;17.20;99.90
26595;DHT22;14238;49.496;8.154;2023-10-08T07:51:08;17.30;99.90
26595;DHT22;14238;49.496;8.154;2023-10-08T07:53:33;17.30;99.90
26595;DHT22;14238;49.496;8.154;2023-10-08T07:56:07;17.40;99.90
26595;DHT22;14238;49.496;8.154;2023-10-08T07:58:34;17.40;99.90
26595;DHT22;14238;49.496;8.154;2023-10-08T08:01:03;17.30;99.90
26595;DHT22;14238;49.496;8.154;2023-10-08T08:03:32;17.30;99.90
26595;DHT22;14238;49.496;8.154;2023-10-08T08:05:58;17.20;99.90
26595;DHT22;14238;49.496;8.154;2023-10-08T08:08:25;17.30;99.90
26595;DHT22;14238;49.496;8.154;2023-10-08T08:10:53;17.30;99.90
26595;DHT22;14238;49.496;8.154;2023-10-08T08:13:23;17.40;99.90
26595;DHT22;14238;49.496;8.154;2023-10-08T08:15:53;17.60;99.90
26595;DHT22;14238;49.496;8.154;2023-10-08T08:18:26;17.60;99.90
26595;DHT22;14238;49.496;8.154;2023-10-08T08:20:58;17.80;99.90
26595;DHT22;14238;49.496;8.154;2023-10-08T08:23:30;17.80;99.90
26595;DHT22;14238;49.496;8.154;2023-10-08T08:25:57;17.80;99.90
26595;DHT22;14238;49.496;8.154;2023-10-08T08:31:02;17.90;99.90
26595;DHT22;14238;49.496;8.154;2023-10-08T08:33:30;18.00;99.90
26595;DHT22;14238;49.496;8.154;2023-10-08T08:36:16;18.10;99.90
26595;DHT22;14238;49.496;8.154;2023-10-08T08:38:42;18.10;99.90
26595;DHT22;14238;49.496;8.154;2023-10-08T08:41:08;18.30;99.90
26595;DHT22;14238;49.496;8.154;2023-10-08T08:43:38;18.20;99.90
26595;DHT22;14238;49.496;8.154;2023-10-08T08:46:09;18.20;99.90
26595;DHT22;14238;49.496;8.154;2023-10-08T08:48:40;18.30;99.90
26595;DHT22;14238;49.496;8.154;2023-10-08T08:51:06;18.50;99.90
26595;DHT22;14238;49.496;8.154;2023-10-08T08:53:36;18.40;99.90
26595;DHT22;14238;49.496;8.154;2023-10-08T08:56:02;18.60;99.90
26595;DHT22;14238;49.496;8.154;2023-10-08T08:58:33;18.60;99.90
26595;DHT22;14238;49.496;8.154;2023-10-08T09:01:00;18.70;99.90
26595;DHT22;14238;49.496;8.154;2023-10-08T09:03:25;18.70;99.90
26595;DHT22;14238;49.496;8.154;2023-10-08T09:05:59;18.80;99.90
26595;DHT22;14238;49.496;8.154;2023-10-08T09:08:37;18.80;99.90
26595;DHT22;14238;49.496;8.154;2023-10-08T09:11:06;19.00;99.90
26595;DHT22;14238;49.496;8.154;2023-10-08T09:13:34;19.20;99.90
26595;DHT22;14238;49.496;8.154;2023-10-08T09:18:29;19.00;99.90
26595;DHT22;14238;49.496;8.154;2023-10-08T09:21:10;18.90;99.90
26595;DHT22;14238;49.496;8.154;2023-10-08T09:23:39;19.00;99.90
26595;DHT22;14238;49.496;8.154;2023-10-08T09:26:09;18.90;99.90
26595;DHT22;14238;49.496;8.154;2023-10-08T09:28:34;19.00;99.90
26595;DHT22;14238;49.496;8.154;2023-10-08T09:31:04;19.10;99.90
26595;DHT22;14238;49.496;8.154;2023-10-08T09:33:30;19.30;99.90
26595;DHT22;14238;49.496;8.154;2023-10-08T09:35:57;19.50;99.90
26595;DHT22;14238;49.496;8.154;2023-10-08T09:38:28;19.50;99.90
26595;DHT22;14238;49.496;8.154;2023-10-08T09:40:55;19.70;99.90
26595;DHT22;14238;49.496;8.154;2023-10-08T09:43:23;19.80;99.90
26595;DHT22;14238;49.496;8.154;2023-10-08T09:45:55;20.00;99.90
26595;DHT22;14238;49.496;8.154;2023-10-08T09:48:25;20.10;99.90
26595;DHT22;14238;49.496;8.154;2023-10-08T09:50:52;20.30;99.90
26595;DHT22;14238;49.496;8.154;2023-10-08T09:53:25;20.40;99.90
26595;DHT22;14238;49.496;8.154;2023-10-08T09:55:55;20.60;99.90
26595;DHT22;14238;49.496;8.154;2023-10-08T09:58:26;20.70;99.90
26595;DHT22;14238;49.496;8.154;2023-10-08T10:00:54;20.90;99.90
26595;DHT22;14238;49.496;8.154;2023-10-08T10:03:21;21.00;99.90
26595;DHT22;14238;49.496;8.154;2023-10-08T10:05:49;21.30;99.90
26595;DHT22;14238;49.496;8.154;2023-10-08T10:08:20;21.60;99.90
26595;DHT22;14238;49.496;8.154;2023-10-08T10:10:57;21.80;99.90
26595;DHT22;14238;49.496;8.154;2023-10-08T10:13:28;21.50;99.90
26595;DHT22;14238;49.496;8.154;2023-10-08T10:15:58;21.50;99.90
26595;DHT22;14238;49.496;8.154;2023-10-08T10:20:58;21.30;99.90
26595;DHT22;14238;49.496;8.154;2023-10-08T10:23:39;21.30;99.90
26595;DHT22;14238;49.496;8.154;2023-10-08T10:31:33;21.50;99.90
26595;DHT22;14238;49.496;8.154;2023-10-08T10:34:05;21.80;99.90
26595;DHT22;14238;49.496;8.154;2023-10-08T10:36:37;22.00;99.90
26595;DHT22;14238;49.496;8.154;2023-10-08T10:39:03;22.20;99.90
26595;DHT22;14238;49.496;8.154;2023-10-08T10:41:52;22.10;99.90
26595;DHT22;14238;49.496;8.154;2023-10-08T10:44:23;22.40;99.90
26595;DHT22;14238;49.496;8.154;2023-10-08T10:46:49;22.60;99.90
26595;DHT22;14238;49.496;8.154;2023-10-08T10:49:38;22.60;99.90
26595;DHT22;14238;49.496;8.154;2023-10-08T10:52:25;23.00;99.90
26595;DHT22;14238;49.496;8.154;2023-10-08T10:55:04;23.20;99.90
26595;DHT22;14238;49.496;8.154;2023-10-08T10:57:51;23.70;99.90
26595;DHT22;14238;49.496;8.154;2023-10-08T11:00:25;24.00;99.90
26595;DHT22;14238;49.496;8.154;2023-10-08T11:03:01;24.70;99.90
26595;DHT22;14238;49.496;8.154;2023-10-08T11:05:56;25.30;99.90
26595;DHT22;14238;49.496;8.154;2023-10-08T11:08:25;25.90;99.90
26595;DHT22;14238;49.496;8.154;2023-10-08T11:10:52;26.10;99.90
26595;DHT22;14238;49.496;8.154;2023-10-08T11:13:19;26.30;99.90
26595;DHT22;14238;49.496;8.154;2023-10-08T11:15:47;26.30;99.90
26595;DHT22;14238;49.496;8.154;2023-10-08T11:18:22;26.20;99.90
26595;DHT22;14238;49.496;8.154;2023-10-08T11:20:49;26.10;99.90
26595;DHT22;14238;49.496;8.154;2023-10-08T11:23:35;26.50;99.90
26595;DHT22;14238;49.496;8.154;2023-10-08T11:26:03;27.40;99.90
26595;DHT22;14238;49.496;8.154;2023-10-08T11:28:33;28.10;99.60
26595;DHT22;14238;49.496;8.154;2023-10-08T11:31:03;28.20;99.10
26595;DHT22;14238;49.496;8.154;2023-10-08T11:33:38;28.30;97.10
26595;DHT22;14238;49.496;8.154;2023-10-08T11:36:09;28.50;98.10
26595;DHT22;14238;49.496;8.154;2023-10-08T11:38:46;28.60;97.40
26595;DHT22;14238;49.496;8.154;2023-10-08T11:41:17;29.00;98.10
26595;DHT22;14238;49.496;8.154;2023-10-08T11:43:49;28.50;96.80
26595;DHT22;14238;49.496;8.154;2023-10-08T11:46:26;28.40;96.50
26595;DHT22;14238;49.496;8.154;2023-10-08T11:49:13;28.80;96.40
26595;DHT22;14238;49.496;8.154;2023-10-08T11:51:51;29.40;96.40
26595;DHT22;14238;49.496;8.154;2023-10-08T11:54:17;29.60;94.80
26595;DHT22;14238;49.496;8.154;2023-10-08T11:56:45;29.60;95.00
26595;DHT22;14238;49.496;8.154;2023-10-08T11:59:12;30.00;95.10
26595;DHT22;14238;49.496;8.154;2023-10-08T12:01:39;30.20;94.70
26595;DHT22;14238;49.496;8.154;2023-10-08T12:04:08;29.80;94.60
26595;DHT22;14238;49.496;8.154;2023-10-08T12:06:42;30.10;94.60
26595;DHT22;14238;49.496;8.154;2023-10-08T12:09:18;30.70;94.60
26595;DHT22;14238;49.496;8.154;2023-10-08T12:11:47;30.80;93.00
26595;DHT22;14238;49.496;8.154;2023-10-08T12:14:13;30.60;94.90
26595;DHT22;14238;49.496;8.154;2023-10-08T12:16:39;30.40;93.40
26595;DHT22;14238;49.496;8.154;2023-10-08T12:19:07;30.30;93.70
26595;DHT22;14238;49.496;8.154;2023-10-08T12:21:41;30.10;95.00
26595;DHT22;14238;49.496;8.154;2023-10-08T12:24:07;30.50;95.40
26595;DHT22;14238;49.496;8.154;2023-10-08T12:26:35;29.70;94.30
26595;DHT22;14238;49.496;8.154;2023-10-08T12:29:01;29.70;94.80
26595;DHT22;14238;49.496;8.154;2023-10-08T12:31:27;29.30;95.50
26595;DHT22;14238;49.496;8.154;2023-10-08T12:33:55;29.70;94.80
26595;DHT22;14238;49.496;8.154;2023-10-08T12:36:26;29.90;93.80
26595;DHT22;14238;49.496;8.154;2023-10-08T12:38:58;30.00;94.20
26595;DHT22;14238;49.496;8.154;2023-10-08T12:41:25;30.50;93.20
26595;DHT22;14238;49.496;8.154;2023-10-08T12:43:52;30.80;93.50
26595;DHT22;14238;49.496;8.154;2023-10-08T12:46:19;30.50;92.60
26595;DHT22;14238;49.496;8.154;2023-10-08T12:48:49;30.70;92.80
26595;DHT22;14238;49.496;8.154;2023-10-08T12:51:18;30.70;94.10
26595;DHT22;14238;49.496;8.154;2023-10-08T12:53:46;30.50;92.30
26595;DHT22;14238;49.496;8.154;2023-10-08T12:56:25;30.40;92.70
26595;DHT22;14238;49.496;8.154;2023-10-08T12:58:57;30.20;93.00
26595;DHT22;14238;49.496;8.154;2023-10-08T13:01:23;30.00;92.00
26595;DHT22;14238;49.496;8.154;2023-10-08T13:03:49;29.90;92.20
26595;DHT22;14238;49.496;8.154;2023-10-08T13:06:16;29.90;93.60
26595;DHT22;14238;49.496;8.154;2023-10-08T13:08:49;29.90;93.90
26595;DHT22;14238;49.496;8.154;2023-10-08T13:11:17;29.80;94.20
26595;DHT22;14238;49.496;8.154;2023-10-08T13:13:54;29.80;94.30
26595;DHT22;14238;49.496;8.154;2023-10-08T13:16:24;29.50;94.10
26595;DHT22;14238;49.496;8.154;2023-10-08T13:18:51;29.30;94.70
26595;DHT22;14238;49.496;8.154;2023-10-08T13:21:18;29.00;94.40
26595;DHT22;14238;49.496;8.154;2023-10-08T13:23:50;29.00;95.80
26595;DHT22;14238;49.496;8.154;2023-10-08T13:26:16;28.70;95.80
26595;DHT22;14238;49.496;8.154;2023-10-08T13:28:43;28.30;95.80
26595;DHT22;14238;49.496;8.154;2023-10-08T13:31:08;28.30;95.70
26595;DHT22;14238;49.496;8.154;2023-10-08T13:33:38;28.30;96.20
26595;DHT22;14238;49.496;8.154;2023-10-08T13:36:14;28.40;96.70
26595;DHT22;14238;49.496;8.154;2023-10-08T13:38:40;28.10;96.20
26595;DHT22;14238;49.496;8.154;2023-10-08T13:41:07;28.10;96.90
26595;DHT22;14238;49.496;8.154;2023-10-08T13:46:16;27.40;97.20
26595;DHT22;14238;49.496;8.154;2023-10-08T13:48:46;27.20;97.10
26595;DHT22;14238;49.496;8.154;2023-10-08T13:51:17;26.80;97.60
26595;DHT22;14238;49.496;8.154;2023-10-08T13:53:50;27.10;98.20
26595;DHT22;14238;49.496;8.154;2023-10-08T13:56:18;27.60;97.60
26595;DHT22;14238;49.496;8.154;2023-10-08T13:58:46;27.50;96.40
26595;DHT22;14238;49.496;8.154;2023-10-08T14:01:15;26.80;98.00
26595;DHT22;14238;49.496;8.154;2023-10-08T14:03:50;26.20;98.10
26595;DHT22;14238;49.496;8.154;2023-10-08T14:06:19;25.60;99.10
26595;DHT22;14238;49.496;8.154;2023-10-08T14:08:46;25.30;99.90
26595;DHT22;14238;49.496;8.154;2023-10-08T14:11:21;25.00;99.90
26595;DHT22;14238;49.496;8.154;2023-10-08T14:13:51;24.80;99.90
26595;DHT22;14238;49.496;8.154;2023-10-08T14:16:20;25.00;99.90
26595;DHT22;14238;49.496;8.154;2023-10-08T14:18:50;25.40;99.90
26595;DHT22;14238;49.496;8.154;2023-10-08T14:21:20;25.80;99.90
26595;DHT22;14238;49.496;8.154;2023-10-08T14:23:52;26.00;99.70
26595;DHT22;14238;49.496;8.154;2023-10-08T14:26:18;26.00;99.90
26595;DHT22;14238;49.496;8.154;2023-10-08T14:28:47;26.10;99.40
26595;DHT22;14238;49.496;8.154;2023-10-08T14:31:18;26.30;99.60
26595;DHT22;14238;49.496;8.154;2023-10-08T14:33:48;26.30;99.40
26595;DHT22;14238;49.496;8.154;2023-10-08T14:36:49;26.20;99.80
26595;DHT22;14238;49.496;8.154;2023-10-08T14:39:34;26.00;99.90
26595;DHT22;14238;49.496;8.154;2023-10-08T14:42:19;26.30;99.90
26595;DHT22;14238;49.496;8.154;2023-10-08T14:45:04;26.20;99.90
26595;DHT22;14238;49.496;8.154;2023-10-08T14:47:39;26.20;99.90
26595;DHT22;14238;49.496;8.154;2023-10-08T14:50:05;26.10;99.90
26595;DHT22;14238;49.496;8.154;2023-10-08T14:52:31;26.00;99.90
26595;DHT22;14238;49.496;8.154;2023-10-08T14:54:58;25.80;99.90
26595;DHT22;14238;49.496;8.154;2023-10-08T14:57:24;25.40;99.90
26595;DHT22;14238;49.496;8.154;2023-10-08T14:59:52;25.20;99.90
26595;DHT22;14238;49.496;8.154;2023-10-08T15:02:17;25.10;99.90
26595;DHT22;14238;49.496;8.154;2023-10-08T15:04:43;25.20;99.90
26595;DHT22;14238;49.496;8.154;2023-10-08T15:07:09;25.10;99.90
26595;DHT22;14238;49.496;8.154;2023-10-08T15:09:37;24.90;99.90
26595;DHT22;14238;49.496;8.154;2023-10-08T15:12:03;25.00;99.90
26595;DHT22;14238;49.496;8.154;2023-10-08T15:14:28;25.20;99.90
26595;DHT22;14238;49.496;8.154;2023-10-08T15:16:54;24.90;99.90
26595;DHT22;14238;49.496;8.154;2023-10-08T15:19:22;24.60;99.90
26595;DHT22;14238;49.496;8.154;2023-10-08T15:21:51;24.40;99.90
26595;DHT22;14238;49.496;8.154;2023-10-08T15:24:18;24.10;99.90
26595;DHT22;14238;49.496;8.154;2023-10-08T15:26:44;24.10;99.90
26595;DHT22;14238;49.496;8.154;2023-10-08T15:29:09;24.10;99.90
26595;DHT22;14238;49.496;8.154;2023-10-08T15:31:35;23.70;99.90
26595;DHT22;14238;49.496;8.154;2023-10-08T15:34:01;23.60;99.90
26595;DHT22;14238;49.496;8.154;2023-10-08T15:36:30;23.30;99.90
26595;DHT22;14238;49.496;8.154;2023-10-08T15:38:55;23.10;99.90
26595;DHT22;14238;49.496;8.154;2023-10-08T15:41:21;23.00;99.90
26595;DHT22;14238;49.496;8.154;2023-10-08T15:43:50;22.90;99.90
26595;DHT22;14238;49.496;8.154;2023-10-08T15:46:17;22.60;99.90
26595;DHT22;14238;49.496;8.154;2023-10-08T15:48:43;22.40;99.90
26595;DHT22;14238;49.496;8.154;2023-10-08T15:51:09;22.20;99.90
26595;DHT22;14238;49.496;8.154;2023-10-08T15:53:34;21.80;99.90
26595;DHT22;14238;49.496;8.154;2023-10-08T15:56:00;21.40;99.90
26595;DHT22;14238;49.496;8.154;2023-10-08T15:58:26;21.30;99.90
26595;DHT22;14238;49.496;8.154;2023-10-08T16:00:51;21.10;99.90
26595;DHT22;14238;49.496;8.154;2023-10-08T16:03:19;21.10;99.90
26595;DHT22;14238;49.496;8.154;2023-10-08T16:05:45;20.90;99.90
26595;DHT22;14238;49.496;8.154;2023-10-08T16:08:11;21.00;99.90
26595;DHT22;14238;49.496;8.154;2023-10-08T16:10:37;20.80;99.90
26595;DHT22;14238;49.496;8.154;2023-10-08T16:13:02;20.80;99.90
26595;DHT22;14238;49.496;8.154;2023-10-08T16:15:30;20.50;99.90